createdAt,value
2022-08-14T00:00:48.706Z,57.48
2022-08-14T00:01:54.596Z,57.61
2022-08-14T00:02:48.773Z,57.37
2022-08-14T00:03:48.261Z,57.40
2022-08-14T00:04:48.158Z,57.68
2022-08-14T00:05:48.317Z,57.76
2022-08-14T00:06:48.595Z,57.54
2022-08-14T00:07:49.458Z,57.18
2022-08-14T00:08:48.229Z,57.10
2022-08-14T00:10:52.751Z,57.35
2022-08-14T00:11:48.410Z,57.57
2022-08-14T00:12:56.345Z,57.58
2022-08-14T00:13:51.730Z,57.52
2022-08-14T00:16:48.985Z,58.04
2022-08-14T00:17:53.348Z,58.09
2022-08-14T00:19:06.456Z,58.11
2022-08-14T00:19:48.247Z,58.32
2022-08-14T00:23:54.094Z,58.19
2022-08-14T00:24:48.188Z,57.92
2022-08-14T00:25:58.790Z,58.03
2022-08-14T00:26:48.705Z,58.09
2022-08-14T00:27:49.168Z,58.20
2022-08-14T00:28:48.220Z,58.46
2022-08-14T00:30:48.568Z,58.62
2022-08-14T00:31:48.286Z,58.56
2022-08-14T00:32:53.058Z,58.56
2022-08-14T00:33:51.838Z,58.81
2022-08-14T00:34:48.298Z,59.02
2022-08-14T00:36:36.153Z,59.05
2022-08-14T00:36:49.761Z,59.05
2022-08-14T00:37:48.472Z,58.87
2022-08-14T00:38:48.199Z,59.11
2022-08-14T00:39:49.190Z,59.23
2022-08-14T00:41:48.880Z,59.20
2022-08-14T00:42:55.257Z,59.23
2022-08-14T00:43:48.303Z,59.21
2022-08-14T00:44:48.294Z,59.37
2022-08-14T00:45:51.634Z,59.46
2022-08-14T00:46:49.623Z,59.46
2022-08-14T00:47:49.676Z,59.36
2022-08-14T00:48:49.354Z,59.32
2022-08-14T00:50:48.398Z,59.62
2022-08-14T00:51:48.300Z,59.54
2022-08-14T00:53:50.505Z,59.04
2022-08-14T00:54:58.204Z,59.08
2022-08-14T00:55:51.249Z,59.02
2022-08-14T00:56:49.339Z,59.01
2022-08-14T00:58:48.716Z,59.25
2022-08-14T00:59:48.236Z,59.13
2022-08-14T01:00:51.528Z,59.16
2022-08-14T01:01:49.289Z,59.17
2022-08-14T01:02:48.195Z,58.96
2022-08-14T01:03:52.685Z,58.77
2022-08-14T01:04:53.784Z,58.53
2022-08-14T01:05:52.464Z,58.37
2022-08-14T01:06:50.959Z,58.33
2022-08-14T01:07:54.129Z,58.37
2022-08-14T01:08:52.394Z,58.59
2022-08-14T01:10:51.430Z,58.54
2022-08-14T01:11:57.175Z,58.54
2022-08-14T01:12:49.792Z,58.68
2022-08-14T01:13:55.985Z,58.82
2022-08-14T01:14:55.611Z,59.08
2022-08-14T01:16:48.831Z,59.11
2022-08-14T01:17:57.717Z,58.65
2022-08-14T01:19:01.236Z,58.73
2022-08-14T01:19:57.613Z,58.83
2022-08-14T01:20:57.862Z,58.94
2022-08-14T01:21:53.511Z,59.10
2022-08-14T01:22:51.656Z,59.19
2022-08-14T01:23:50.758Z,59.10
2022-08-14T01:24:50.968Z,58.94
2022-08-14T01:25:51.351Z,58.85
2022-08-14T01:26:50.649Z,58.89
2022-08-14T01:27:56.941Z,59.20
2022-08-14T01:30:01.292Z,59.15
2022-08-14T01:30:50.137Z,59.22
2022-08-14T01:31:50.189Z,59.36
2022-08-14T01:32:51.247Z,59.27
2022-08-14T01:35:20.918Z,59.30
2022-08-14T01:36:04.965Z,59.35
2022-08-14T01:36:48.525Z,59.21
2022-08-14T01:37:54.690Z,58.99
2022-08-14T01:41:58.135Z,58.78
2022-08-14T01:42:49.906Z,58.81
2022-08-14T01:43:56.534Z,58.94
2022-08-14T01:44:54.380Z,58.97
2022-08-14T01:46:06.138Z,58.76
2022-08-14T01:46:57.981Z,58.67
2022-08-14T01:47:48.195Z,58.62
2022-08-14T01:48:49.261Z,58.68
2022-08-14T01:50:01.205Z,58.58
2022-08-14T01:50:48.185Z,58.34
2022-08-14T01:51:49.239Z,58.30
2022-08-14T01:52:58.511Z,58.35
2022-08-14T01:53:55.441Z,58.42
2022-08-14T01:54:58.048Z,58.39
2022-08-14T01:55:51.744Z,58.38
2022-08-14T01:58:57.754Z,58.35
2022-08-14T01:59:50.532Z,58.42
2022-08-14T02:00:55.095Z,58.50
2022-08-14T02:01:58.456Z,58.58
2022-08-14T02:02:48.384Z,58.51
2022-08-14T02:03:53.336Z,58.38
2022-08-14T02:05:48.306Z,58.54
2022-08-14T02:06:51.157Z,58.61
2022-08-14T02:07:55.859Z,58.69
2022-08-14T02:09:55.877Z,58.56
2022-08-14T02:10:57.551Z,58.72
2022-08-14T02:12:57.119Z,59.00
2022-08-14T02:15:00.196Z,58.97
2022-08-14T02:15:50.229Z,58.97
2022-08-14T02:16:53.282Z,59.13
2022-08-14T02:17:49.153Z,59.37
2022-08-14T02:19:48.257Z,59.44
2022-08-14T02:20:48.945Z,59.28
2022-08-14T02:21:50.609Z,59.25
2022-08-14T02:22:48.489Z,59.63
2022-08-14T02:24:48.247Z,59.91
2022-08-14T02:25:54.708Z,60.04
2022-08-14T02:26:58.350Z,59.97
2022-08-14T02:28:23.806Z,60.07
2022-08-14T02:29:56.215Z,60.07
2022-08-14T02:30:48.376Z,59.84
2022-08-14T02:31:50.787Z,59.84
2022-08-14T02:32:50.626Z,60.13
2022-08-14T02:33:48.241Z,60.27
2022-08-14T02:34:48.437Z,60.26
2022-08-14T02:35:53.212Z,60.33
2022-08-14T02:38:48.812Z,59.99
2022-08-14T02:39:48.715Z,60.10
2022-08-14T02:40:48.944Z,59.96
2022-08-14T02:42:54.568Z,60.37
2022-08-14T02:43:48.449Z,60.41
2022-08-14T02:47:48.139Z,60.78
2022-08-14T02:49:04.240Z,60.72
2022-08-14T02:49:50.618Z,60.74
2022-08-14T02:50:51.626Z,60.74
2022-08-14T02:51:49.903Z,60.78
2022-08-14T02:57:15.833Z,60.83
2022-08-14T02:57:58.119Z,60.73
2022-08-14T02:58:51.361Z,61.04
2022-08-14T03:01:50.939Z,61.12
2022-08-14T03:02:59.140Z,61.26
2022-08-14T03:03:50.099Z,61.20
2022-08-14T03:06:57.357Z,61.65
2022-08-14T03:07:48.077Z,61.17
2022-08-14T03:08:48.617Z,61.39
2022-08-14T03:10:50.012Z,61.57
2022-08-14T03:13:51.895Z,61.70
2022-08-14T03:14:51.657Z,61.61
2022-08-14T03:16:49.539Z,61.69
2022-08-14T03:17:57.576Z,61.86
2022-08-14T03:18:52.647Z,61.95
2022-08-14T03:19:48.603Z,61.97
2022-08-14T03:20:48.689Z,61.99
2022-08-14T03:21:53.032Z,62.04
2022-08-14T03:22:50.833Z,61.97
2022-08-14T03:23:51.814Z,61.73
2022-08-14T03:24:48.249Z,61.65
2022-08-14T03:25:48.456Z,61.88
2022-08-14T03:26:49.968Z,62.24
2022-08-14T03:28:51.119Z,62.14
2022-08-14T03:29:48.749Z,62.28
2022-08-14T03:30:48.100Z,62.32
2022-08-14T03:31:51.475Z,62.46
2022-08-14T03:36:05.699Z,62.51
2022-08-14T03:37:38.906Z,62.62
2022-08-14T03:39:13.278Z,62.54
2022-08-14T03:39:15.269Z,62.64
2022-08-14T03:39:48.120Z,62.42
2022-08-14T03:40:48.162Z,62.52
2022-08-14T03:41:48.448Z,62.48
2022-08-14T03:42:48.464Z,62.52
2022-08-14T03:43:57.436Z,62.61
2022-08-14T03:45:26.593Z,62.63
2022-08-14T03:45:48.944Z,62.54
2022-08-14T03:46:54.840Z,62.74
2022-08-14T03:48:48.425Z,62.73
2022-08-14T03:49:50.042Z,62.79
2022-08-14T03:50:48.742Z,62.74
2022-08-14T03:51:48.105Z,62.53
2022-08-14T03:55:48.745Z,62.63
2022-08-14T03:56:50.125Z,62.60
2022-08-14T03:57:48.829Z,62.68
2022-08-14T04:00:48.283Z,63.03
2022-08-14T04:02:53.406Z,62.75
2022-08-14T04:03:49.589Z,62.91
2022-08-14T04:04:48.083Z,63.07
2022-08-14T04:05:48.974Z,63.06
2022-08-14T04:06:49.016Z,63.02
2022-08-14T04:07:49.821Z,63.04
2022-08-14T04:08:49.809Z,63.24
2022-08-14T04:09:48.062Z,63.29
2022-08-14T04:11:48.932Z,63.56
2022-08-14T04:14:48.335Z,63.75
2022-08-14T04:16:01.508Z,63.88
2022-08-14T04:16:48.361Z,63.96
2022-08-14T04:17:48.356Z,64.21
2022-08-14T04:18:52.903Z,64.42
2022-08-14T04:19:48.176Z,64.57
2022-08-14T04:20:54.477Z,64.65
2022-08-14T04:22:02.656Z,64.95
2022-08-14T04:22:48.773Z,65.00
2022-08-14T04:23:57.101Z,65.23
2022-08-14T04:24:49.619Z,65.39
2022-08-14T04:25:48.058Z,65.47
2022-08-14T04:28:01.854Z,65.57
2022-08-14T04:33:02.736Z,65.87
2022-08-14T04:33:48.749Z,65.66
2022-08-14T04:34:51.852Z,65.64
2022-08-14T04:35:56.056Z,65.76
2022-08-14T04:36:57.362Z,65.85
2022-08-14T04:37:57.479Z,65.96
2022-08-14T04:38:57.459Z,66.16
2022-08-14T04:39:57.826Z,66.14
2022-08-14T04:41:57.407Z,66.40
2022-08-14T04:42:57.377Z,66.58
2022-08-14T04:43:48.093Z,66.81
2022-08-14T04:44:48.860Z,66.86
2022-08-14T04:45:51.434Z,67.12
2022-08-14T04:46:57.774Z,67.25
2022-08-14T04:47:57.382Z,67.34
2022-08-14T04:48:51.357Z,67.53
2022-08-14T04:49:57.237Z,67.56
2022-08-14T04:50:54.308Z,67.62
2022-08-14T04:51:55.782Z,67.68
2022-08-14T04:52:53.837Z,67.71
2022-08-14T04:53:50.672Z,67.84
2022-08-14T04:54:48.025Z,67.97
2022-08-14T04:55:51.665Z,68.07
2022-08-14T04:56:48.080Z,68.12
2022-08-14T04:57:49.301Z,68.31
2022-08-14T04:58:48.231Z,68.44
2022-08-14T04:59:48.023Z,68.50
2022-08-14T05:00:51.069Z,68.68
2022-08-14T05:01:51.667Z,68.84
2022-08-14T05:02:48.049Z,68.90
2022-08-14T05:03:49.212Z,69.03
2022-08-14T05:04:56.747Z,69.13
2022-08-14T05:05:49.639Z,69.08
2022-08-14T05:06:49.116Z,69.07
2022-08-14T05:08:01.175Z,69.17
2022-08-14T05:08:56.934Z,69.21
2022-08-14T05:09:48.110Z,69.29
2022-08-14T05:10:52.138Z,69.36
2022-08-14T05:11:48.319Z,69.41
2022-08-14T05:13:13.420Z,69.41
2022-08-14T05:14:34.270Z,69.36
2022-08-14T05:14:53.526Z,69.41
2022-08-14T05:15:49.086Z,69.42
2022-08-14T05:16:48.373Z,69.37
2022-08-14T05:17:54.058Z,69.39
2022-08-14T05:19:18.417Z,69.39
2022-08-14T05:21:04.474Z,69.49
2022-08-14T05:21:54.326Z,69.51
2022-08-14T05:21:59.471Z,69.57
2022-08-14T05:22:48.059Z,69.68
2022-08-14T05:23:48.346Z,69.73
2022-08-14T05:25:50.212Z,69.90
2022-08-14T05:26:48.163Z,69.95
2022-08-14T05:27:48.038Z,70.01
2022-08-14T05:28:48.005Z,70.10
2022-08-14T05:29:48.419Z,70.15
2022-08-14T05:30:50.729Z,70.32
2022-08-14T05:31:48.097Z,70.31
2022-08-14T05:32:48.814Z,70.46
2022-08-14T05:33:56.595Z,70.52
2022-08-14T05:34:48.299Z,70.63
2022-08-14T05:35:50.427Z,70.66
2022-08-14T05:37:49.885Z,70.78
2022-08-14T05:38:49.015Z,70.88
2022-08-14T05:39:48.254Z,70.88
2022-08-14T05:41:53.962Z,70.91
2022-08-14T05:42:52.809Z,71.06
2022-08-14T05:43:49.439Z,71.21
2022-08-14T05:45:48.687Z,71.16
2022-08-14T05:46:48.436Z,71.21
2022-08-14T05:47:50.858Z,71.23
2022-08-14T05:48:49.985Z,71.31
2022-08-14T05:49:48.512Z,71.39
2022-08-14T05:50:48.065Z,71.64
2022-08-14T05:51:48.013Z,71.85
2022-08-14T05:52:51.693Z,71.89
2022-08-14T05:54:01.647Z,71.93
2022-08-14T05:54:48.071Z,71.95
2022-08-14T05:56:48.226Z,71.97
2022-08-14T05:57:52.258Z,72.03
2022-08-14T05:58:48.264Z,72.19
2022-08-14T05:59:47.981Z,72.32
2022-08-14T06:00:48.555Z,72.31
2022-08-14T06:01:48.074Z,72.45
2022-08-14T06:02:47.978Z,72.41
2022-08-14T06:03:48.049Z,72.61
2022-08-14T06:06:48.078Z,72.56
2022-08-14T06:07:48.338Z,72.58
2022-08-14T06:09:52.178Z,72.55
2022-08-14T06:10:48.381Z,72.61
2022-08-14T06:11:49.852Z,72.62
2022-08-14T06:12:56.587Z,72.76
2022-08-14T06:13:48.389Z,72.73
2022-08-14T06:14:47.958Z,72.88
2022-08-14T06:15:49.230Z,72.87
2022-08-14T06:16:48.048Z,73.02
2022-08-14T06:17:58.786Z,73.41
2022-08-14T06:18:51.873Z,73.63
2022-08-14T06:19:48.350Z,73.62
2022-08-14T06:20:47.983Z,73.89
2022-08-14T06:21:48.141Z,74.40
2022-08-14T06:22:48.300Z,74.24
2022-08-14T06:23:49.012Z,74.52
2022-08-14T06:24:48.033Z,74.81
2022-08-14T06:25:52.800Z,75.02
2022-08-14T06:26:54.121Z,75.05
2022-08-14T06:27:50.121Z,75.46
2022-08-14T06:28:47.978Z,75.75
2022-08-14T06:32:52.798Z,75.78
2022-08-14T06:35:03.613Z,75.71
2022-08-14T06:35:10.742Z,75.47
2022-08-14T06:35:50.007Z,75.42
2022-08-14T06:37:49.701Z,75.37
2022-08-14T06:38:50.262Z,75.30
2022-08-14T06:41:58.623Z,75.14
2022-08-14T06:44:48.118Z,75.09
2022-08-14T06:45:53.700Z,75.01
2022-08-14T06:47:48.690Z,75.11
2022-08-14T06:50:49.329Z,75.01
2022-08-14T06:51:49.875Z,75.19
2022-08-14T06:52:50.387Z,75.31
2022-08-14T06:53:47.909Z,75.35
2022-08-14T06:55:58.299Z,75.50
2022-08-14T07:06:48.366Z,75.87
2022-08-14T07:08:48.203Z,75.97
2022-08-14T07:09:51.097Z,75.92
2022-08-14T07:13:02.014Z,75.89
2022-08-14T07:14:47.932Z,75.79
2022-08-14T07:18:50.945Z,75.85
2022-08-14T07:21:48.345Z,76.30
2022-08-14T07:22:56.466Z,76.54
2022-08-14T07:23:48.721Z,76.90
2022-08-14T07:24:48.047Z,77.01
2022-08-14T07:25:51.404Z,77.20
2022-08-14T07:26:48.997Z,77.35
2022-08-14T07:27:48.079Z,77.73
2022-08-14T07:28:48.284Z,77.72
2022-08-14T07:29:47.904Z,77.93
2022-08-14T07:30:51.122Z,78.23
2022-08-14T07:31:47.872Z,78.57
2022-08-14T07:32:48.276Z,78.85
2022-08-14T07:33:50.158Z,78.94
2022-08-14T07:34:48.107Z,78.94
2022-08-14T07:35:58.406Z,79.05
2022-08-14T07:37:49.581Z,79.39
2022-08-14T07:38:52.097Z,79.46
2022-08-14T07:40:52.850Z,79.48
2022-08-14T07:41:48.066Z,79.31
2022-08-14T07:44:50.399Z,79.43
2022-08-14T07:45:47.970Z,79.45
2022-08-14T07:46:47.914Z,79.54
2022-08-14T07:47:47.927Z,79.50
2022-08-14T07:48:48.638Z,79.48
2022-08-14T07:50:01.782Z,79.39
2022-08-14T07:50:50.793Z,79.61
2022-08-14T07:51:49.654Z,79.53
2022-08-14T07:52:50.301Z,79.59
2022-08-14T07:53:49.415Z,79.57
2022-08-14T07:54:48.055Z,79.82
2022-08-14T07:56:00.177Z,79.83
2022-08-14T07:56:50.024Z,79.94
2022-08-14T07:59:49.025Z,80.12
2022-08-14T08:00:51.351Z,79.91
2022-08-14T08:01:51.622Z,79.84
2022-08-14T08:02:55.899Z,80.03
2022-08-14T08:04:54.009Z,79.88
2022-08-14T08:05:48.189Z,79.88
2022-08-14T08:06:47.989Z,80.10
2022-08-14T08:09:01.290Z,80.11
2022-08-14T08:11:54.635Z,80.26
2022-08-14T08:14:56.997Z,80.44
2022-08-14T08:17:53.900Z,80.82
2022-08-14T08:18:48.447Z,80.67
2022-08-14T08:21:48.083Z,80.64
2022-08-14T08:22:49.757Z,80.54
2022-08-14T08:23:51.120Z,80.83
2022-08-14T08:24:50.215Z,80.75
2022-08-14T08:27:57.459Z,80.80
2022-08-14T08:30:52.897Z,80.76
2022-08-14T08:31:52.262Z,80.80
2022-08-14T08:32:47.882Z,80.74
2022-08-14T08:33:53.076Z,80.79
2022-08-14T08:34:49.314Z,80.83
2022-08-14T08:35:50.405Z,80.89
2022-08-14T08:36:48.292Z,80.88
2022-08-14T08:37:48.804Z,80.83
2022-08-14T08:39:15.702Z,80.86
2022-08-14T08:41:01.126Z,80.80
2022-08-14T08:41:03.349Z,80.80
2022-08-14T08:41:28.187Z,80.80
2022-08-14T08:41:43.242Z,80.80
2022-08-14T08:41:50.773Z,80.79
2022-08-14T08:42:53.165Z,80.71
2022-08-14T08:43:47.885Z,80.50
2022-08-14T08:46:59.008Z,80.31
2022-08-14T08:47:48.851Z,80.35
2022-08-14T08:52:53.921Z,80.34
2022-08-14T08:54:01.232Z,80.34
2022-08-14T08:55:47.998Z,80.59
2022-08-14T08:56:50.233Z,80.45
2022-08-14T08:58:47.914Z,80.54
2022-08-14T09:00:54.089Z,80.76
2022-08-14T09:01:58.324Z,80.78
2022-08-14T09:03:47.850Z,80.74
2022-08-14T09:04:53.208Z,80.91
2022-08-14T09:05:54.545Z,80.84
2022-08-14T09:07:10.318Z,80.81
2022-08-14T09:07:48.317Z,80.86
2022-08-14T09:08:47.956Z,81.08
2022-08-14T09:09:58.641Z,81.21
2022-08-14T09:10:48.330Z,81.21
2022-08-14T09:11:47.900Z,81.21
2022-08-14T09:12:51.445Z,81.29
2022-08-14T09:13:49.107Z,81.34
2022-08-14T09:16:48.446Z,81.54
2022-08-14T09:17:48.058Z,81.56
2022-08-14T09:18:48.517Z,81.50
2022-08-14T09:19:48.941Z,81.56
2022-08-14T09:20:50.889Z,81.49
2022-08-14T09:22:49.715Z,81.65
2022-08-14T09:24:49.522Z,81.60
2022-08-14T09:26:01.106Z,81.56
2022-08-14T09:29:54.153Z,81.27
2022-08-14T09:30:54.317Z,81.44
2022-08-14T09:31:53.472Z,81.38
2022-08-14T09:35:59.080Z,81.17
2022-08-14T09:37:05.806Z,81.47
2022-08-14T09:39:54.974Z,81.48
2022-08-14T09:40:52.027Z,81.50
2022-08-14T09:42:21.434Z,81.73
2022-08-14T09:44:06.449Z,81.83
2022-08-14T09:44:57.301Z,81.83
2022-08-14T09:46:55.559Z,81.86
2022-08-14T09:47:52.318Z,81.95
2022-08-14T09:48:57.191Z,82.19
2022-08-14T09:50:51.627Z,82.35
2022-08-14T09:52:57.110Z,82.58
2022-08-14T09:54:19.034Z,82.37
2022-08-14T09:56:56.522Z,82.36
2022-08-14T09:57:50.208Z,82.29
2022-08-14T09:59:50.349Z,82.26
2022-08-14T10:00:49.230Z,82.35
2022-08-14T10:03:53.663Z,82.38
2022-08-14T10:05:47.901Z,82.44
2022-08-14T10:06:48.446Z,82.50
2022-08-14T10:07:58.864Z,82.46
2022-08-14T10:08:51.600Z,82.44
2022-08-14T10:10:00.329Z,82.37
2022-08-14T10:10:57.077Z,82.45
2022-08-14T10:11:59.055Z,82.46
2022-08-14T10:12:53.198Z,82.59
2022-08-14T10:13:55.921Z,82.54
2022-08-14T10:14:53.515Z,82.54
2022-08-14T10:16:52.826Z,82.52
2022-08-14T10:17:49.273Z,82.48
2022-08-14T10:18:52.229Z,82.47
2022-08-14T10:19:50.027Z,82.43
2022-08-14T10:23:50.165Z,82.39
2022-08-14T10:24:50.870Z,82.42
2022-08-14T10:25:51.203Z,82.48
2022-08-14T10:27:59.991Z,82.60
2022-08-14T10:30:53.737Z,82.69
2022-08-14T10:31:59.524Z,82.70
2022-08-14T10:32:51.318Z,82.74
2022-08-14T10:34:01.779Z,82.86
2022-08-14T10:34:52.688Z,82.86
2022-08-14T10:35:48.387Z,82.94
2022-08-14T10:36:50.261Z,83.12
2022-08-14T10:38:58.989Z,83.14
2022-08-14T10:40:10.613Z,83.16
2022-08-14T10:40:52.345Z,83.04
2022-08-14T10:41:49.382Z,83.03
2022-08-14T10:42:48.083Z,83.07
2022-08-14T10:44:05.739Z,83.14
2022-08-14T10:44:52.518Z,83.24
2022-08-14T10:46:03.777Z,83.41
2022-08-14T10:47:36.371Z,83.46
2022-08-14T10:48:08.723Z,83.50
2022-08-14T10:48:57.806Z,83.47
2022-08-14T10:49:58.311Z,83.55
2022-08-14T10:50:51.711Z,83.65
2022-08-14T10:52:59.708Z,83.62
2022-08-14T10:54:49.142Z,83.65
2022-08-14T10:55:48.361Z,83.66
2022-08-14T10:57:52.722Z,83.68
2022-08-14T10:58:49.161Z,83.80
2022-08-14T10:59:52.060Z,83.74
2022-08-14T11:01:47.857Z,83.58
2022-08-14T11:03:09.877Z,83.57
2022-08-14T11:05:55.678Z,83.48
2022-08-14T11:06:54.530Z,83.44
2022-08-14T11:08:50.711Z,83.39
2022-08-14T11:09:56.089Z,83.34
2022-08-14T11:10:49.265Z,83.32
2022-08-14T11:14:59.820Z,83.17
2022-08-14T11:16:53.700Z,83.12
2022-08-14T11:18:51.236Z,83.06
2022-08-14T11:19:53.801Z,83.03
2022-08-14T11:20:51.119Z,82.97
2022-08-14T11:21:51.916Z,83.00
2022-08-14T11:23:03.470Z,82.97
2022-08-14T11:23:49.540Z,82.96
2022-08-14T11:24:55.836Z,82.96
2022-08-14T11:25:53.144Z,82.95
2022-08-14T11:26:48.320Z,82.95
2022-08-14T11:27:49.370Z,83.02
2022-08-14T11:28:50.397Z,83.03
2022-08-14T11:30:53.532Z,83.06
2022-08-14T11:31:51.751Z,83.09
2022-08-14T11:34:47.959Z,83.14
2022-08-14T11:37:09.805Z,83.14
2022-08-14T11:37:54.639Z,83.15
2022-08-14T11:41:55.713Z,83.13
2022-08-14T11:42:58.143Z,83.11
2022-08-14T11:43:58.070Z,83.13
2022-08-14T11:44:48.947Z,83.11
2022-08-14T11:45:50.537Z,83.10
2022-08-14T11:46:48.223Z,83.08
2022-08-14T11:48:13.663Z,83.11
2022-08-14T11:49:04.166Z,83.14
2022-08-14T11:54:58.620Z,83.19
2022-08-14T12:00:50.697Z,83.13
2022-08-14T12:03:02.735Z,83.09
2022-08-14T12:03:52.412Z,83.06
2022-08-14T12:04:51.975Z,83.06
2022-08-14T12:05:47.768Z,83.02
2022-08-14T12:06:52.704Z,83.03
2022-08-14T12:07:53.391Z,82.99
2022-08-14T12:08:52.827Z,82.99
2022-08-14T12:09:52.833Z,83.00
2022-08-14T12:10:47.930Z,83.00
2022-08-14T12:12:49.995Z,82.99
2022-08-14T12:14:53.728Z,83.00
2022-08-14T12:16:57.048Z,82.96
2022-08-14T12:19:54.283Z,82.33
2022-08-14T12:20:52.686Z,82.04
2022-08-14T12:21:53.761Z,81.77
2022-08-14T12:22:52.655Z,81.59
2022-08-14T12:23:50.449Z,81.48
2022-08-14T12:24:51.405Z,81.38
2022-08-14T12:25:59.516Z,81.30
2022-08-14T12:26:57.883Z,81.32
2022-08-14T12:27:53.258Z,81.34
2022-08-14T12:29:00.016Z,81.39
2022-08-14T12:29:55.639Z,81.39
2022-08-14T12:31:57.049Z,81.36
2022-08-14T12:32:47.722Z,81.41
2022-08-14T12:33:59.993Z,81.45
2022-08-14T12:34:55.485Z,81.48
2022-08-14T12:35:49.376Z,81.51
2022-08-14T12:36:47.802Z,81.55
2022-08-14T12:37:51.386Z,81.65
2022-08-14T12:43:51.934Z,82.09
2022-08-14T12:44:49.870Z,82.17
2022-08-14T12:45:51.331Z,82.20
2022-08-14T12:46:47.707Z,82.24
2022-08-14T12:47:47.903Z,82.29
2022-08-14T12:49:53.139Z,82.27
2022-08-14T12:51:57.976Z,82.54
2022-08-14T12:53:06.433Z,82.66
2022-08-14T12:53:48.849Z,82.67
2022-08-14T12:55:01.613Z,82.73
2022-08-14T12:56:18.072Z,82.72
2022-08-14T12:56:48.288Z,82.72
2022-08-14T12:57:49.273Z,82.74
2022-08-14T12:58:52.318Z,82.71
2022-08-14T12:59:49.429Z,82.60
2022-08-14T13:01:14.348Z,82.56
2022-08-14T13:04:51.364Z,82.53
2022-08-14T13:05:50.005Z,82.58
2022-08-14T13:06:51.433Z,82.67
2022-08-14T13:07:47.684Z,82.75
2022-08-14T13:08:53.281Z,82.89
2022-08-14T13:09:48.210Z,83.01
2022-08-14T13:13:48.862Z,83.01
2022-08-14T13:14:50.853Z,83.03
2022-08-14T13:15:57.508Z,83.08
2022-08-14T13:16:50.519Z,83.13
2022-08-14T13:17:51.221Z,83.16
2022-08-14T13:29:02.402Z,83.26
2022-08-14T13:29:50.195Z,83.27
2022-08-14T13:33:47.831Z,83.25
2022-08-14T13:34:52.747Z,83.22
2022-08-14T13:35:50.528Z,83.20
2022-08-14T13:36:54.543Z,83.20
2022-08-14T13:38:50.388Z,83.25
2022-08-14T13:44:53.766Z,83.35
2022-08-14T13:46:00.558Z,83.38
2022-08-14T13:46:49.034Z,83.40
2022-08-14T13:47:47.648Z,83.43
2022-08-14T13:48:48.286Z,83.46
2022-08-14T13:49:58.157Z,83.47
2022-08-14T13:50:51.463Z,83.47
2022-08-14T13:51:53.000Z,83.46
2022-08-14T13:52:54.845Z,83.50
2022-08-14T13:54:08.497Z,83.55
2022-08-14T13:54:53.368Z,83.52
2022-08-14T13:55:52.198Z,83.56
2022-08-14T13:56:48.709Z,83.55
2022-08-14T13:57:56.866Z,83.52
2022-08-14T13:58:49.431Z,83.47
2022-08-14T13:59:49.478Z,83.43
2022-08-14T14:00:53.557Z,83.42
2022-08-14T14:01:51.941Z,83.40
2022-08-14T14:02:49.315Z,83.39
2022-08-14T14:03:50.317Z,83.43
2022-08-14T14:04:49.958Z,83.48
2022-08-14T14:05:52.835Z,83.56
2022-08-14T14:06:49.660Z,83.67
2022-08-14T14:12:56.257Z,84.07
2022-08-14T14:14:51.711Z,84.11
2022-08-14T14:15:58.372Z,84.07
2022-08-14T14:16:48.758Z,84.02
2022-08-14T14:17:48.723Z,83.97
2022-08-14T14:18:52.402Z,83.88
2022-08-14T14:19:47.750Z,83.79
2022-08-14T14:20:47.610Z,83.69
2022-08-14T14:21:51.333Z,83.56
2022-08-14T14:23:02.564Z,83.52
2022-08-14T14:23:49.078Z,83.45
2022-08-14T14:24:47.774Z,83.42
2022-08-14T14:25:57.069Z,83.45
2022-08-14T14:26:50.258Z,83.45
2022-08-14T14:27:53.225Z,83.43
2022-08-14T14:28:51.736Z,83.41
2022-08-14T14:29:55.626Z,83.39
2022-08-14T14:30:53.496Z,83.34
2022-08-14T14:31:50.912Z,83.27
2022-08-14T14:33:01.932Z,83.15
2022-08-14T14:33:48.852Z,83.06
2022-08-14T14:34:48.558Z,82.94
2022-08-14T14:35:48.581Z,82.88
2022-08-14T14:36:52.725Z,82.75
2022-08-14T14:37:48.930Z,82.57
2022-08-14T14:38:56.306Z,82.47
2022-08-14T14:40:50.507Z,82.29
2022-08-14T14:40:53.416Z,82.37
2022-08-14T14:41:56.205Z,82.18
2022-08-14T14:42:51.953Z,82.03
2022-08-14T14:43:51.940Z,81.87
2022-08-14T14:44:53.242Z,81.62
2022-08-14T14:45:50.744Z,81.33
2022-08-14T14:46:53.097Z,81.01
2022-08-14T14:47:51.765Z,80.78
2022-08-14T14:48:54.730Z,80.56
2022-08-14T14:49:54.966Z,80.40
2022-08-14T14:50:53.151Z,80.21
2022-08-14T14:51:51.597Z,80.03
2022-08-14T14:52:49.829Z,79.74
2022-08-14T14:53:48.162Z,79.63
2022-08-14T14:54:49.872Z,79.64
2022-08-14T14:56:48.337Z,79.60
2022-08-14T14:56:52.266Z,79.54
2022-08-14T14:59:48.107Z,79.32
2022-08-14T15:00:48.706Z,79.27
2022-08-14T15:01:50.899Z,79.31
2022-08-14T15:02:51.538Z,79.31
2022-08-14T15:03:47.929Z,79.27
2022-08-14T15:04:48.064Z,79.19
2022-08-14T15:05:48.152Z,79.04
2022-08-14T15:06:48.385Z,78.92
2022-08-14T15:07:49.747Z,78.93
2022-08-14T15:08:56.955Z,78.90
2022-08-14T15:09:48.343Z,78.88
2022-08-14T15:10:47.577Z,78.85
2022-08-14T15:11:47.738Z,78.87
2022-08-14T15:12:55.811Z,78.82
2022-08-14T15:13:53.244Z,78.73
2022-08-14T15:15:04.436Z,78.73
2022-08-14T15:15:47.755Z,78.77
2022-08-14T15:16:48.027Z,78.82
2022-08-14T15:17:47.611Z,78.77
2022-08-14T15:18:49.218Z,78.79
2022-08-14T15:19:57.143Z,78.81
2022-08-14T15:20:48.318Z,78.78
2022-08-14T15:21:47.659Z,78.74
2022-08-14T15:22:51.049Z,78.77
2022-08-14T15:23:48.917Z,78.79
2022-08-14T15:24:49.244Z,78.70
2022-08-14T15:25:53.200Z,78.68
2022-08-14T15:26:47.586Z,78.65
2022-08-14T15:27:54.669Z,78.65
2022-08-14T15:28:48.598Z,78.77
2022-08-14T15:29:47.938Z,78.84
2022-08-14T15:30:57.701Z,78.79
2022-08-14T15:31:47.569Z,78.68
2022-08-14T15:32:48.193Z,78.63
2022-08-14T15:34:33.174Z,78.52
2022-08-14T15:34:51.550Z,78.61
2022-08-14T15:35:48.724Z,78.72
2022-08-14T15:36:48.887Z,78.68
2022-08-14T15:37:48.462Z,78.72
2022-08-14T15:38:47.630Z,78.72
2022-08-14T15:39:49.337Z,78.71
2022-08-14T15:40:51.613Z,78.72
2022-08-14T15:41:48.295Z,78.85
2022-08-14T15:42:48.722Z,78.98
2022-08-14T15:43:47.631Z,79.01
2022-08-14T15:44:57.206Z,79.06
2022-08-14T15:48:47.673Z,78.92
2022-08-14T15:49:48.091Z,78.86
2022-08-14T15:50:49.157Z,78.71
2022-08-14T15:51:47.576Z,78.69
2022-08-14T15:52:47.934Z,78.74
2022-08-14T15:53:47.538Z,78.76
2022-08-14T15:55:48.625Z,78.73
2022-08-14T15:56:55.948Z,78.72
2022-08-14T15:58:01.836Z,78.73
2022-08-14T15:58:47.736Z,78.67
2022-08-14T15:59:57.092Z,78.68
2022-08-14T16:01:54.110Z,78.59
2022-08-14T16:02:47.857Z,78.62
2022-08-14T16:04:50.712Z,78.46
2022-08-14T16:05:47.673Z,78.49
2022-08-14T16:06:54.555Z,78.56
2022-08-14T16:07:47.625Z,78.59
2022-08-14T16:08:58.926Z,78.50
2022-08-14T16:10:48.141Z,78.17
2022-08-14T16:11:53.415Z,78.06
2022-08-14T16:12:48.066Z,77.96
2022-08-14T16:13:49.274Z,78.01
2022-08-14T16:14:47.542Z,78.02
2022-08-14T16:15:53.615Z,78.00
2022-08-14T16:16:51.589Z,78.01
2022-08-14T16:17:48.108Z,77.98
2022-08-14T16:18:49.198Z,77.88
2022-08-14T16:19:48.070Z,77.75
2022-08-14T16:20:50.038Z,77.63
2022-08-14T16:22:02.126Z,77.56
2022-08-14T16:22:58.122Z,77.53
2022-08-14T16:23:48.989Z,77.51
2022-08-14T16:25:00.026Z,77.51
2022-08-14T16:25:47.941Z,77.60
2022-08-14T16:26:51.719Z,77.62
2022-08-14T16:28:53.019Z,77.70
2022-08-14T16:30:52.734Z,77.62
2022-08-14T16:31:49.430Z,77.56
2022-08-14T16:32:55.565Z,77.63
2022-08-14T16:33:58.891Z,77.59
2022-08-14T16:34:51.015Z,77.61
2022-08-14T16:36:50.981Z,77.55
2022-08-14T16:37:47.755Z,77.58
2022-08-14T16:41:51.206Z,77.40
2022-08-14T16:43:04.459Z,77.43
2022-08-14T16:46:49.835Z,77.15
2022-08-14T16:47:47.900Z,77.03
2022-08-14T16:48:58.074Z,76.94
2022-08-14T16:51:52.711Z,76.96
2022-08-14T16:52:55.768Z,76.93
2022-08-14T16:53:48.230Z,76.86
2022-08-14T16:54:47.617Z,76.83
2022-08-14T16:55:53.790Z,76.74
2022-08-14T16:56:47.993Z,76.74
2022-08-14T16:57:52.158Z,76.78
2022-08-14T16:58:53.944Z,76.77
2022-08-14T16:59:52.541Z,76.82
2022-08-14T17:00:47.508Z,76.85
2022-08-14T17:01:57.757Z,76.85
2022-08-14T17:02:47.973Z,76.82
2022-08-14T17:04:49.135Z,76.78
2022-08-14T17:05:48.519Z,76.76
2022-08-14T17:08:32.450Z,76.71
2022-08-14T17:08:47.518Z,76.76
2022-08-14T17:09:49.998Z,76.75
2022-08-14T17:14:00.859Z,76.40